Time,TemperatureF,DewpointF,PressureIn,WindDirection,WindDirectionDegrees,WindSpeedMPH,WindSpeedGustMPH,Humidity,HourlyPrecipIn,Conditions,Clouds,dailyrainin,SoftwareType,DateUTC
2013-06-03 00:00:00,52.4,47.7,29.96,NW,319,3.0,3.0,84,0.00,,,0.07,Wunderground v.1.15,2013-06-03 04:00:00,
2013-06-03 00:02:00,52.2,47.2,29.96,WNW,295,3.0,4.0,83,0.00,,,0.00,Wunderground v.1.15,2013-06-03 04:02:00,
2013-06-03 00:07:00,52.1,47.4,29.96,WNW,290,3.0,4.0,84,0.00,,,0.00,Wunderground v.1.15,2013-06-03 04:07:00,
2013-06-03 00:13:00,51.7,46.7,29.96,WNW,300,4.0,4.0,83,0.00,,,0.00,Wunderground v.1.15,2013-06-03 04:13:00,
2013-06-03 00:18:00,51.3,46.6,29.96,WNW,297,3.0,4.0,84,0.00,,,0.00,Wunderground v.1.15,2013-06-03 04:18:00,
2013-06-03 00:20:00,51.3,46.6,29.96,WNW,295,3.0,3.0,84,0.00,,,0.00,Wunderground v.1.15,2013-06-03 04:20:00,
2013-06-03 00:26:00,51.0,46.6,29.96,NW,304,3.0,3.0,85,0.00,,,0.00,Wunderground v.1.15,2013-06-03 04:26:00,
2013-06-03 00:39:00,50.5,46.5,29.97,WNW,297,2.0,2.0,86,0.00,,,0.00,Wunderground v.1.15,2013-06-03 04:39:00,
2013-06-03 00:48:00,50.2,46.2,29.97,WNW,302,2.0,2.0,86,0.00,,,0.00,Wunderground v.1.15,2013-06-03 04:48:00,
2013-06-03 00:53:00,50.1,46.1,29.97,WNW,301,3.0,3.0,86,0.00,,,0.00,Wunderground v.1.15,2013-06-03 04:53:00,
2013-06-03 01:10:00,49.3,45.6,29.97,NW,314,2.0,2.0,87,0.00,,,0.00,Wunderground v.1.15,2013-06-03 05:10:00,
2013-06-03 01:16:00,49.1,45.4,29.97,NW,307,2.0,2.0,87,0.00,,,0.00,Wunderground v.1.15,2013-06-03 05:16:00,
2013-06-03 01:22:00,48.9,45.5,29.97,NW,307,2.0,2.0,88,0.00,,,0.00,Wunderground v.1.15,2013-06-03 05:22:00,
2013-06-03 01:28:00,48.8,45.4,29.97,WNW,303,2.0,2.0,88,0.00,,,0.00,Wunderground v.1.15,2013-06-03 05:28:00,
2013-06-03 01:34:00,48.6,45.2,29.97,NW,307,2.0,4.0,88,0.00,,,0.00,Wunderground v.1.15,2013-06-03 05:34:00,
2013-06-03 01:41:00,48.4,45.0,29.97,NW,304,2.0,3.0,88,0.00,,,0.00,Wunderground v.1.15,2013-06-03 05:41:00,
2013-06-03 01:52:00,48.1,45.0,29.97,NW,314,1.0,2.0,89,0.00,,,0.00,Wunderground v.1.15,2013-06-03 05:52:00,
2013-06-03 02:04:00,47.7,44.9,29.96,NNW,332,1.0,1.0,90,0.00,,,0.00,Wunderground v.1.15,2013-06-03 06:04:00,
2013-06-03 02:10:00,47.6,44.8,29.96,NW,326,1.0,1.0,90,0.00,,,0.00,Wunderground v.1.15,2013-06-03 06:10:00,
2013-06-03 02:16:00,47.4,44.6,29.96,NW,316,0.0,0.0,90,0.00,,,0.00,Wunderground v.1.15,2013-06-03 06:16:00,
2013-06-03 02:22:00,47.2,44.7,29.97,WNW,297,1.0,1.0,91,0.00,,,0.00,Wunderground v.1.15,2013-06-03 06:22:00,
2013-06-03 02:28:00,47.2,44.7,29.96,WNW,301,1.0,2.0,91,0.00,,,0.00,Wunderground v.1.15,2013-06-03 06:28:00,
2013-06-03 02:37:00,47.1,44.9,29.96,WNW,286,1.0,1.0,92,0.00,,,0.00,Wunderground v.1.15,2013-06-03 06:37:00,
2013-06-03 03:00:00,46.8,44.3,29.96,WNW,294,3.0,3.0,91,0.00,,,0.00,Wunderground v.1.15,2013-06-03 07:00:00,
2013-06-03 03:12:00,46.7,44.5,29.96,WNW,297,2.0,2.0,92,0.00,,,0.00,Wunderground v.1.15,2013-06-03 07:12:00,
2013-06-03 03:28:00,46.5,44.3,29.96,WNW,290,1.0,1.0,92,0.00,,,0.00,Wunderground v.1.15,2013-06-03 07:28:00,
2013-06-03 03:36:00,46.5,44.6,29.96,WNW,284,1.0,1.0,93,0.00,,,0.00,Wunderground v.1.15,2013-06-03 07:36:00,
2013-06-03 03:42:00,46.5,44.6,29.96,WNW,291,1.0,2.0,93,0.00,,,0.00,Wunderground v.1.15,2013-06-03 07:42:00,
2013-06-03 03:48:00,46.4,44.5,29.96,WNW,287,1.0,2.0,93,0.00,,,0.00,Wunderground v.1.15,2013-06-03 07:48:00,
2013-06-03 03:54:00,46.3,44.4,29.96,WNW,297,1.0,3.0,93,0.00,,,0.00,Wunderground v.1.15,2013-06-03 07:54:00,
2013-06-03 04:00:00,46.3,44.4,29.96,WNW,300,1.0,1.0,93,0.00,,,0.00,Wunderground v.1.15,2013-06-03 08:00:00,
2013-06-03 04:06:00,46.1,44.5,29.96,WNW,297,1.0,1.0,94,0.00,,,0.00,Wunderground v.1.15,2013-06-03 08:06:00,
2013-06-03 04:31:00,45.7,44.1,29.96,NW,311,0.0,0.0,94,0.00,,,0.00,Wunderground v.1.15,2013-06-03 08:31:00,
2013-06-03 04:47:00,45.8,44.4,29.96,WNW,288,0.0,1.0,95,0.00,,,0.00,Wunderground v.1.15,2013-06-03 08:47:00,
2013-06-03 04:58:00,46.2,44.8,29.97,WNW,291,2.0,2.0,95,0.00,,,0.00,Wunderground v.1.15,2013-06-03 08:58:00,
2013-06-03 05:12:00,46.7,45.3,29.97,West,280,1.0,1.0,95,0.00,,,0.00,Wunderground v.1.15,2013-06-03 09:12:00,
2013-06-03 05:18:00,46.8,45.4,29.97,NW,307,1.0,2.0,95,0.00,,,0.00,Wunderground v.1.15,2013-06-03 09:18:00,
2013-06-03 05:24:00,46.9,45.5,29.97,NW,316,1.0,2.0,95,0.00,,,0.00,Wunderground v.1.15,2013-06-03 09:24:00,
2013-06-03 05:30:00,47.1,45.7,29.97,NW,309,2.0,3.0,95,0.00,,,0.00,Wunderground v.1.15,2013-06-03 09:30:00,
2013-06-03 05:36:00,47.1,45.5,29.97,NW,305,2.0,2.0,94,0.00,,,0.00,Wunderground v.1.15,2013-06-03 09:36:00,
2013-06-03 05:42:00,47.2,45.8,29.97,NW,307,2.0,2.0,95,0.00,,,0.00,Wunderground v.1.15,2013-06-03 09:42:00,
2013-06-03 05:50:00,47.3,45.9,29.98,NW,319,2.0,2.0,95,0.00,,,0.00,Wunderground v.1.15,2013-06-03 09:50:00,
2013-06-03 06:08:00,47.6,46.2,29.98,NNW,330,2.0,2.0,95,0.00,,,0.00,Wunderground v.1.15,2013-06-03 10:08:00,
2013-06-03 06:18:00,47.9,46.5,29.98,NNW,336,2.0,2.0,95,0.00,,,0.00,Wunderground v.1.15,2013-06-03 10:18:00,
2013-06-03 06:26:00,48.0,46.6,29.98,North,354,2.0,2.0,95,0.00,,,0.00,Wunderground v.1.15,2013-06-03 10:26:00,
2013-06-03 06:34:00,48.2,46.8,29.98,North,8,2.0,2.0,95,0.00,,,0.00,Wunderground v.1.15,2013-06-03 10:34:00,
2013-06-03 06:54:00,48.9,47.5,29.99,NE,37,2.0,2.0,95,0.00,,,0.00,Wunderground v.1.15,2013-06-03 10:54:00,
2013-06-03 07:00:00,49.1,47.7,29.99,NNE,27,2.0,4.0,95,0.00,,,0.00,Wunderground v.1.15,2013-06-03 11:00:00,
2013-06-03 07:08:00,49.5,48.1,29.99,NNE,29,2.0,4.0,95,0.00,,,0.00,Wunderground v.1.15,2013-06-03 11:08:00,
2013-06-03 07:14:00,49.7,48.3,30.00,NNE,15,3.0,4.0,95,0.00,,,0.00,Wunderground v.1.15,2013-06-03 11:14:00,
2013-06-03 07:23:00,50.0,48.3,30.00,NNE,29,3.0,3.0,94,0.00,,,0.00,Wunderground v.1.15,2013-06-03 11:23:00,
2013-06-03 07:36:00,50.8,49.1,30.00,NNE,19,4.0,4.0,94,0.00,,,0.00,Wunderground v.1.15,2013-06-03 11:36:00,
2013-06-03 07:47:00,51.5,49.5,30.00,NE,54,4.0,4.0,93,0.00,,,0.00,Wunderground v.1.15,2013-06-03 11:47:00,
2013-06-03 07:55:00,51.8,49.0,30.00,NE,56,5.0,9.0,90,0.00,,,0.00,Wunderground v.1.15,2013-06-03 11:55:00,
2013-06-03 08:00:00,52.1,49.3,30.01,NE,37,6.0,6.0,90,0.00,,,0.00,Wunderground v.1.15,2013-06-03 12:00:00,
2013-06-03 08:18:00,52.4,48.3,30.01,NE,43,7.0,7.0,86,0.00,,,0.00,Wunderground v.1.15,2013-06-03 12:18:00,
2013-06-03 08:26:00,52.5,48.1,30.01,ENE,58,8.0,8.0,85,0.00,,,0.00,Wunderground v.1.15,2013-06-03 12:26:00,
2013-06-03 08:32:00,52.5,47.8,30.02,NE,44,8.0,11.0,84,0.00,,,0.00,Wunderground v.1.15,2013-06-03 12:32:00,
2013-06-03 08:38:00,52.5,47.5,30.02,NE,56,8.0,10.0,83,0.00,,,0.00,Wunderground v.1.15,2013-06-03 12:38:00,
2013-06-03 08:44:00,53.0,48.0,30.02,NE,53,8.0,10.0,83,0.00,,,0.00,Wunderground v.1.15,2013-06-03 12:44:00,
2013-06-03 08:50:00,53.1,47.4,30.02,NE,47,8.0,10.0,81,0.00,,,0.00,Wunderground v.1.15,2013-06-03 12:50:00,
2013-06-03 08:56:00,53.4,48.4,30.02,NE,51,8.0,10.0,83,0.00,,,0.00,Wunderground v.1.15,2013-06-03 12:56:00,
2013-06-03 09:03:00,53.7,48.3,30.02,NE,54,7.0,7.0,82,0.00,,,0.00,Wunderground v.1.15,2013-06-03 13:03:00,
2013-06-03 09:14:00,54.5,48.8,30.02,NE,46,7.0,8.0,81,0.00,,,0.00,Wunderground v.1.15,2013-06-03 13:14:00,
2013-06-03 09:20:00,54.7,48.6,30.02,NE,35,6.0,8.0,80,0.00,,,0.00,Wunderground v.1.15,2013-06-03 13:20:00,
2013-06-03 09:28:00,55.0,49.3,30.02,ENE,58,6.0,6.0,81,0.00,,,0.00,Wunderground v.1.15,2013-06-03 13:28:00,
2013-06-03 09:39:00,55.7,49.6,30.02,NE,37,6.0,6.0,80,0.00,,,0.00,Wunderground v.1.15,2013-06-03 13:39:00,
2013-06-03 09:47:00,56.0,49.6,30.02,ENE,61,7.0,8.0,79,0.00,,,0.00,Wunderground v.1.15,2013-06-03 13:47:00,
2013-06-03 09:53:00,56.1,49.7,30.02,ENE,65,6.0,6.0,79,0.00,,,0.00,Wunderground v.1.15,2013-06-03 13:53:00,
2013-06-03 10:01:00,56.4,48.2,30.03,ENE,60,6.0,6.0,74,0.00,,,0.00,Wunderground v.1.15,2013-06-03 14:01:00,
2013-06-03 10:11:00,57.1,42.9,30.03,NE,44,8.0,9.0,59,0.00,,,0.00,Wunderground v.1.15,2013-06-03 14:11:00,
2013-06-03 10:16:00,57.3,40.8,30.03,NE,53,9.0,10.0,54,0.00,,,0.00,Wunderground v.1.15,2013-06-03 14:16:00,
2013-06-03 10:22:00,57.6,42.9,30.04,ENE,58,9.0,9.0,58,0.00,,,0.00,Wunderground v.1.15,2013-06-03 14:22:00,
2013-06-03 10:28:00,57.5,41.4,30.04,NE,53,9.0,11.0,55,0.00,,,0.00,Wunderground v.1.15,2013-06-03 14:28:00,
2013-06-03 10:34:00,57.8,42.7,30.04,NE,53,10.0,11.0,57,0.00,,,0.00,Wunderground v.1.15,2013-06-03 14:34:00,
2013-06-03 10:43:00,57.7,42.1,30.04,NE,51,10.0,10.0,56,0.00,,,0.00,Wunderground v.1.15,2013-06-03 14:43:00,
2013-06-03 11:17:00,58.4,42.8,30.05,NE,36,8.0,8.0,56,0.00,,,0.00,Wunderground v.1.15,2013-06-03 15:17:00,
2013-06-03 11:22:00,58.9,44.6,30.05,ENE,59,8.0,12.0,59,0.00,,,0.00,Wunderground v.1.15,2013-06-03 15:22:00,
2013-06-03 11:28:00,58.8,43.6,30.05,NE,35,8.0,12.0,57,0.00,,,0.00,Wunderground v.1.15,2013-06-03 15:28:00,
2013-06-03 11:35:00,59.0,44.7,30.05,NE,55,6.0,6.0,59,0.00,,,0.00,Wunderground v.1.15,2013-06-03 15:35:00,
2013-06-03 11:44:00,59.6,43.4,30.05,East,83,6.0,8.0,55,0.00,,,0.00,Wunderground v.1.15,2013-06-03 15:44:00,
2013-06-03 11:50:00,59.7,42.5,30.05,ENE,57,7.0,7.0,53,0.00,,,0.00,Wunderground v.1.15,2013-06-03 15:50:00,
2013-06-03 11:56:00,60.2,44.9,30.05,NE,54,7.0,9.0,57,0.00,,,0.00,Wunderground v.1.15,2013-06-03 15:56:00,
2013-06-03 12:02:00,60.1,43.9,30.05,ENE,64,6.0,6.0,55,0.00,,,0.00,Wunderground v.1.15,2013-06-03 16:02:00,
2013-06-03 12:08:00,60.3,44.1,30.05,NE,55,5.0,6.0,55,0.00,,,0.00,Wunderground v.1.15,2013-06-03 16:08:00,
2013-06-03 12:14:00,60.5,44.7,30.05,NE,51,5.0,7.0,56,0.00,,,0.00,Wunderground v.1.15,2013-06-03 16:14:00,
2013-06-03 12:21:00,60.7,44.4,30.05,NE,36,4.0,4.0,55,0.00,,,0.00,Wunderground v.1.15,2013-06-03 16:21:00,
2013-06-03 12:28:00,61.0,44.2,30.06,ENE,61,6.0,6.0,54,0.00,,,0.00,Wunderground v.1.15,2013-06-03 16:28:00,
2013-06-03 12:35:00,61.1,43.8,30.05,ENE,58,5.0,5.0,53,0.00,,,0.00,Wunderground v.1.15,2013-06-03 16:35:00,
2013-06-03 12:40:00,61.3,44.0,30.05,ENE,62,3.0,4.0,53,0.00,,,0.00,Wunderground v.1.15,2013-06-03 16:40:00,
2013-06-03 12:47:00,61.6,44.8,30.05,ENE,75,3.0,6.0,54,0.00,,,0.00,Wunderground v.1.15,2013-06-03 16:47:00,
2013-06-03 12:54:00,61.4,46.5,30.05,NE,39,6.0,6.0,58,0.00,,,0.00,Wunderground v.1.15,2013-06-03 16:54:00,
2013-06-03 13:00:00,61.8,44.5,30.05,East,82,3.0,6.0,53,0.00,,,0.00,Wunderground v.1.15,2013-06-03 17:00:00,
2013-06-03 13:06:00,61.7,43.9,30.05,East,84,3.0,6.0,52,0.00,,,0.00,Wunderground v.1.15,2013-06-03 17:06:00,
2013-06-03 13:12:00,61.7,43.4,30.05,ENE,78,4.0,4.0,51,0.00,,,0.00,Wunderground v.1.15,2013-06-03 17:12:00,
2013-06-03 13:18:00,62.2,46.3,30.04,NNE,20,4.0,6.0,56,0.00,,,0.00,Wunderground v.1.15,2013-06-03 17:18:00,
2013-06-03 13:24:00,62.4,45.0,30.04,North,9,4.0,5.0,53,0.00,,,0.00,Wunderground v.1.15,2013-06-03 17:24:00,
2013-06-03 13:31:00,63.0,45.1,30.04,ENE,61,2.0,5.0,52,0.00,,,0.00,Wunderground v.1.15,2013-06-03 17:31:00,
2013-06-03 13:42:00,63.1,47.1,30.03,ENE,62,3.0,4.0,56,0.00,,,0.00,Wunderground v.1.15,2013-06-03 17:42:00,
2013-06-03 13:58:00,63.4,47.9,30.02,NE,54,6.0,7.0,57,0.00,,,0.00,Wunderground v.1.15,2013-06-03 17:58:00,
2013-06-03 14:05:00,63.3,43.8,30.02,ENE,58,7.0,7.0,49,0.00,,,0.00,Wunderground v.1.15,2013-06-03 18:05:00,
2013-06-03 14:14:00,63.2,45.3,30.01,NE,47,4.0,4.0,52,0.00,,,0.00,Wunderground v.1.15,2013-06-03 18:14:00,
2013-06-03 14:30:00,64.3,46.8,30.01,NNE,26,5.0,5.0,53,0.00,,,0.00,Wunderground v.1.15,2013-06-03 18:30:00,
2013-06-03 14:37:00,63.9,45.9,30.01,ENE,76,6.0,6.0,52,0.00,,,0.00,Wunderground v.1.15,2013-06-03 18:37:00,
2013-06-03 14:44:00,64.0,48.5,30.00,NE,44,4.0,8.0,57,0.00,,,0.00,Wunderground v.1.15,2013-06-03 18:44:00,
2013-06-03 14:50:00,64.1,45.6,30.00,NNE,16,6.0,8.0,51,0.00,,,0.00,Wunderground v.1.15,2013-06-03 18:50:00,
2013-06-03 14:56:00,63.9,46.9,30.00,North,353,6.0,6.0,54,0.00,,,0.00,Wunderground v.1.15,2013-06-03 18:56:00,
2013-06-03 15:02:00,64.3,46.3,30.00,NE,38,4.0,5.0,52,0.00,,,0.00,Wunderground v.1.15,2013-06-03 19:02:00,
2013-06-03 15:09:00,64.7,46.1,30.00,NNW,338,4.0,8.0,51,0.00,,,0.00,Wunderground v.1.15,2013-06-03 19:09:00,
2013-06-03 15:15:00,64.9,47.9,30.00,NE,56,6.0,6.0,54,0.00,,,0.00,Wunderground v.1.15,2013-06-03 19:15:00,
2013-06-03 15:20:00,64.6,43.9,30.00,NNE,15,6.0,6.0,47,0.00,,,0.00,Wunderground v.1.15,2013-06-03 19:20:00,
2013-06-03 15:28:00,64.9,48.3,30.00,NE,52,6.0,12.0,55,0.00,,,0.00,Wunderground v.1.15,2013-06-03 19:28:00,
2013-06-03 15:39:00,65.1,45.5,29.99,NE,52,5.0,5.0,49,0.00,,,0.00,Wunderground v.1.15,2013-06-03 19:39:00,
2013-06-03 15:46:00,65.2,46.1,29.99,NE,56,3.0,5.0,50,0.00,,,0.00,Wunderground v.1.15,2013-06-03 19:46:00,
2013-06-03 16:09:00,66.3,47.1,29.99,NW,310,4.0,7.0,50,0.00,,,0.00,Wunderground v.1.15,2013-06-03 20:09:00,
2013-06-03 16:16:00,66.2,46.5,29.99,NW,310,5.0,5.0,49,0.00,,,0.00,Wunderground v.1.15,2013-06-03 20:16:00,
2013-06-03 16:22:00,66.1,46.4,29.99,NW,306,3.0,5.0,49,0.00,,,0.00,Wunderground v.1.15,2013-06-03 20:22:00,
2013-06-03 16:28:00,66.0,44.6,29.99,WNW,284,4.0,4.0,46,0.00,,,0.00,Wunderground v.1.15,2013-06-03 20:28:00,
2013-06-03 16:34:00,66.7,45.3,29.99,NNE,20,2.0,4.0,46,0.00,,,0.00,Wunderground v.1.15,2013-06-03 20:34:00,
2013-06-03 16:40:00,66.5,44.5,29.99,NNE,22,2.0,5.0,45,0.00,,,0.00,Wunderground v.1.15,2013-06-03 20:40:00,
2013-06-03 17:07:00,66.8,44.2,29.99,NE,54,5.0,5.0,44,0.00,,,0.00,Wunderground v.1.15,2013-06-03 21:07:00,
2013-06-03 17:13:00,66.9,44.9,30.00,North,11,4.0,4.0,45,0.00,,,0.00,Wunderground v.1.15,2013-06-03 21:13:00,
2013-06-03 17:22:00,67.3,46.9,30.00,NW,318,4.0,5.0,48,0.00,,,0.00,Wunderground v.1.15,2013-06-03 21:22:00,
2013-06-03 17:27:00,67.3,46.9,29.99,NE,50,5.0,8.0,48,0.00,,,0.00,Wunderground v.1.15,2013-06-03 21:27:00,
2013-06-03 17:34:00,66.9,44.9,30.00,NE,39,6.0,6.0,45,0.00,,,0.00,Wunderground v.1.15,2013-06-03 21:34:00,
2013-06-03 17:40:00,66.7,45.3,29.99,North,6,6.0,6.0,46,0.00,,,0.00,Wunderground v.1.15,2013-06-03 21:40:00,
2013-06-03 17:46:00,67.1,46.7,29.99,NW,322,5.0,5.0,48,0.00,,,0.00,Wunderground v.1.15,2013-06-03 21:46:00,
2013-06-03 17:52:00,67.2,47.9,29.99,NE,54,5.0,7.0,50,0.00,,,0.00,Wunderground v.1.15,2013-06-03 21:52:00,
2013-06-03 17:58:00,67.5,48.2,29.99,NNE,13,6.0,6.0,50,0.00,,,0.00,Wunderground v.1.15,2013-06-03 21:58:00,
2013-06-03 18:04:00,67.1,46.2,29.98,NE,51,6.0,6.0,47,0.00,,,0.00,Wunderground v.1.15,2013-06-03 22:04:00,
2013-06-03 18:10:00,66.9,47.1,29.98,NNE,13,7.0,7.0,49,0.00,,,0.00,Wunderground v.1.15,2013-06-03 22:10:00,
2013-06-03 18:16:00,67.0,48.3,29.98,North,359,6.0,7.0,51,0.00,,,0.00,Wunderground v.1.15,2013-06-03 22:16:00,
2013-06-03 18:21:00,67.0,46.7,29.98,NE,39,5.0,7.0,48,0.00,,,0.00,Wunderground v.1.15,2013-06-03 22:21:00,
2013-06-03 18:30:00,67.2,48.5,29.98,North,4,5.0,9.0,51,0.00,,,0.00,Wunderground v.1.15,2013-06-03 22:30:00,
2013-06-03 18:43:00,66.9,47.1,29.98,NE,53,6.0,6.0,49,0.00,,,0.00,Wunderground v.1.15,2013-06-03 22:43:00,
2013-06-03 18:48:00,66.8,47.0,29.98,ENE,68,5.0,6.0,49,0.00,,,0.00,Wunderground v.1.15,2013-06-03 22:48:00,
2013-06-03 18:54:00,66.8,47.0,29.98,NE,51,5.0,5.0,49,0.00,,,0.00,Wunderground v.1.15,2013-06-03 22:54:00,
2013-06-03 19:07:00,66.8,48.1,29.99,NNW,342,5.0,5.0,51,0.00,,,0.00,Wunderground v.1.15,2013-06-03 23:07:00,
2013-06-03 19:13:00,67.0,47.7,29.99,NNE,20,4.0,6.0,50,0.00,,,0.00,Wunderground v.1.15,2013-06-03 23:13:00,
2013-06-03 19:21:00,66.9,48.2,29.98,NE,40,5.0,6.0,51,0.00,,,0.00,Wunderground v.1.15,2013-06-03 23:21:00,
2013-06-03 19:30:00,67.0,45.5,29.99,North,356,3.0,5.0,46,0.00,,,0.00,Wunderground v.1.15,2013-06-03 23:30:00,
2013-06-03 19:43:00,66.7,47.5,29.99,ENE,58,4.0,5.0,50,0.00,,,0.00,Wunderground v.1.15,2013-06-03 23:43:00,
2013-06-03 19:51:00,66.3,46.6,29.99,NE,54,5.0,5.0,49,0.00,,,0.00,Wunderground v.1.15,2013-06-03 23:51:00,
2013-06-03 20:04:00,65.9,47.3,30.00,NE,53,5.0,5.0,51,0.00,,,0.00,Wunderground v.1.15,2013-06-04 00:04:00,
2013-06-03 20:09:00,65.8,47.2,30.00,ENE,57,4.0,5.0,51,0.00,,,0.00,Wunderground v.1.15,2013-06-04 00:09:00,
2013-06-03 20:19:00,65.7,47.6,30.00,NE,36,3.0,4.0,52,0.00,,,0.00,Wunderground v.1.15,2013-06-04 00:19:00,
2013-06-03 20:29:00,66.0,47.9,30.01,NNE,25,1.0,2.0,52,0.00,,,0.00,Wunderground v.1.15,2013-06-04 00:29:00,
2013-06-03 20:43:00,65.3,48.2,30.01,NNE,12,2.0,2.0,54,0.00,,,0.00,Wunderground v.1.15,2013-06-04 00:43:00,
2013-06-03 20:52:00,64.6,49.5,30.01,NE,55,1.0,1.0,58,0.00,,,0.00,Wunderground v.1.15,2013-06-04 00:52:00,
2013-06-03 21:01:00,63.7,49.5,30.02,NE,39,0.0,0.0,60,0.00,,,0.00,Wunderground v.1.15,2013-06-04 01:01:00,
2013-06-03 21:06:00,62.9,49.2,30.01,East,92,0.0,0.0,61,0.00,,,0.00,Wunderground v.1.15,2013-06-04 01:06:00,
2013-06-03 21:14:00,61.6,48.0,30.02,ENE,72,0.0,0.0,61,0.00,,,0.00,Wunderground v.1.15,2013-06-04 01:14:00,
2013-06-03 21:23:00,60.7,49.3,30.02,ENE,74,0.0,0.0,66,0.00,,,0.00,Wunderground v.1.15,2013-06-04 01:23:00,
2013-06-03 21:28:00,59.8,48.0,30.01,ENE,73,0.0,0.0,65,0.00,,,0.00,Wunderground v.1.15,2013-06-04 01:28:00,
2013-06-03 21:36:00,58.9,46.3,30.02,ENE,74,0.0,0.0,63,0.00,,,0.00,Wunderground v.1.15,2013-06-04 01:36:00,
2013-06-03 21:45:00,58.1,47.2,30.02,ENE,73,0.0,0.0,67,0.00,,,0.00,Wunderground v.1.15,2013-06-04 01:45:00,
2013-06-03 21:54:00,57.7,47.2,30.02,ENE,73,0.0,0.0,68,0.00,,,0.00,Wunderground v.1.15,2013-06-04 01:54:00,
2013-06-03 22:00:00,57.3,46.4,30.02,ENE,73,0.0,0.0,67,0.00,,,0.00,Wunderground v.1.15,2013-06-04 02:00:00,
2013-06-03 22:08:00,57.3,45.6,30.02,ENE,74,0.0,0.0,65,0.00,,,0.00,Wunderground v.1.15,2013-06-04 02:08:00,
2013-06-03 22:19:00,56.8,50.4,30.03,ENE,74,0.0,0.0,79,0.00,,,0.00,Wunderground v.1.15,2013-06-04 02:19:00,
2013-06-03 22:24:00,56.4,50.6,30.03,ENE,73,0.0,0.0,81,0.00,,,0.00,Wunderground v.1.15,2013-06-04 02:24:00,
2013-06-03 22:37:00,55.1,50.0,30.03,ENE,74,0.0,0.0,83,0.00,,,0.00,Wunderground v.1.15,2013-06-04 02:37:00,
2013-06-03 22:47:00,54.8,49.7,30.04,ENE,73,0.0,0.0,83,0.00,,,0.00,Wunderground v.1.15,2013-06-04 02:47:00,
2013-06-03 22:59:00,55.0,49.6,30.04,ENE,74,0.0,0.0,82,0.00,,,0.00,Wunderground v.1.15,2013-06-04 02:59:00,
2013-06-03 23:04:00,54.7,49.0,30.05,ENE,73,0.0,0.0,81,0.00,,,0.00,Wunderground v.1.15,2013-06-04 03:04:00,
2013-06-03 23:10:00,54.8,48.7,30.04,ENE,74,0.0,0.0,80,0.00,,,0.00,Wunderground v.1.15,2013-06-04 03:10:00,
2013-06-03 23:21:00,54.8,49.1,30.05,ENE,74,0.0,0.0,81,0.00,,,0.00,Wunderground v.1.15,2013-06-04 03:21:00,
2013-06-03 23:31:00,54.2,49.1,30.05,ENE,74,0.0,0.0,83,0.00,,,0.00,Wunderground v.1.15,2013-06-04 03:31:00,
2013-06-03 23:41:00,53.9,49.2,30.05,ENE,74,0.0,0.0,84,0.00,,,0.00,Wunderground v.1.15,2013-06-04 03:41:00,
2013-06-03 23:47:00,53.4,49.0,30.06,ENE,74,0.0,0.0,85,0.00,,,0.00,Wunderground v.1.15,2013-06-04 03:47:00,